createdAt,value
2022-09-02T00:01:37.559Z,59.04
2022-09-02T00:04:13.778Z,58.65
2022-09-02T00:06:42.845Z,59.13
2022-09-02T00:09:13.745Z,59.03
2022-09-02T00:11:42.852Z,58.85
2022-09-02T00:14:16.297Z,58.66
2022-09-02T00:16:45.170Z,59.16
2022-09-02T00:19:12.096Z,58.82
2022-09-02T00:21:39.046Z,58.83
2022-09-02T00:24:06.531Z,59.13
2022-09-02T00:26:33.520Z,58.86
2022-09-02T00:29:00.538Z,58.75
2022-09-02T00:31:29.027Z,58.57
2022-09-02T00:33:56.482Z,58.28
2022-09-02T00:36:23.488Z,58.68
2022-09-02T00:38:51.321Z,58.38
2022-09-02T00:41:24.306Z,58.42
2022-09-02T00:44:00.159Z,58.39
2022-09-02T00:46:30.364Z,58.49
2022-09-02T00:49:28.512Z,58.34
2022-09-02T00:52:21.794Z,57.99
2022-09-02T00:55:08.767Z,58.69
2022-09-02T00:57:45.927Z,58.58
2022-09-02T01:00:24.982Z,58.87
2022-09-02T01:03:03.547Z,59.13
2022-09-02T01:05:40.666Z,58.86
2022-09-02T01:08:13.375Z,59.09
2022-09-02T01:10:41.021Z,59.44
2022-09-02T01:13:15.792Z,59.17
2022-09-02T01:15:49.643Z,59.18
2022-09-02T01:18:26.066Z,59.36
2022-09-02T01:20:53.158Z,59.55
2022-09-02T01:23:20.174Z,60.14
2022-09-02T01:25:48.382Z,60.20
2022-09-02T01:28:18.686Z,59.81
2022-09-02T01:30:51.486Z,60.04
2022-09-02T01:33:22.459Z,60.58
2022-09-02T01:35:50.726Z,60.80
2022-09-02T01:38:18.595Z,61.00
2022-09-02T01:40:45.949Z,61.37
2022-09-02T01:43:21.805Z,61.61
2022-09-02T01:45:51.793Z,61.33
2022-09-02T01:48:21.738Z,61.17
2022-09-02T01:51:01.515Z,61.19
2022-09-02T01:53:29.756Z,61.23
2022-09-02T01:55:56.841Z,60.97
2022-09-02T01:58:23.886Z,61.78
2022-09-02T02:00:50.991Z,61.54
2022-09-02T02:03:18.766Z,61.47
2022-09-02T02:05:45.711Z,61.49
2022-09-02T02:08:12.661Z,61.91
2022-09-02T02:10:42.821Z,61.77
2022-09-02T02:13:10.085Z,61.66
2022-09-02T02:15:40.534Z,61.63
2022-09-02T02:18:08.846Z,61.59
2022-09-02T02:20:37.510Z,61.96
2022-09-02T02:23:06.966Z,61.84
2022-09-02T02:25:34.170Z,61.95
2022-09-02T02:28:02.611Z,62.37
2022-09-02T02:30:29.742Z,62.67
2022-09-02T02:32:56.945Z,62.99
2022-09-02T02:35:24.064Z,63.44
2022-09-02T02:37:51.680Z,63.34
2022-09-02T02:40:22.747Z,63.97
2022-09-02T02:42:53.236Z,63.79
2022-09-02T02:45:21.043Z,63.32
2022-09-02T02:47:47.967Z,62.81
2022-09-02T02:50:19.086Z,63.25
2022-09-02T02:52:46.993Z,62.61
2022-09-02T02:55:15.468Z,61.99
2022-09-02T02:57:43.462Z,61.75
2022-09-02T03:00:13.949Z,62.08
2022-09-02T03:02:41.313Z,62.42
2022-09-02T03:05:09.716Z,62.82
2022-09-02T03:07:36.744Z,63.56
2022-09-02T03:10:08.171Z,64.24
2022-09-02T03:12:37.011Z,64.42
2022-09-02T03:15:04.960Z,64.53
2022-09-02T03:17:31.892Z,65.08
2022-09-02T03:19:59.352Z,65.74
2022-09-02T03:22:27.777Z,66.43
2022-09-02T03:24:54.838Z,67.38
2022-09-02T03:27:22.346Z,68.03
2022-09-02T03:29:49.278Z,67.63
2022-09-02T03:32:19.753Z,67.70
2022-09-02T03:34:46.776Z,68.19
2022-09-02T03:37:13.746Z,67.75
2022-09-02T03:39:40.924Z,68.01
2022-09-02T03:42:19.322Z,67.84
2022-09-02T03:44:47.267Z,67.58
2022-09-02T03:47:17.900Z,68.08
2022-09-02T03:49:47.917Z,68.02
2022-09-02T03:52:14.948Z,68.18
2022-09-02T03:54:45.646Z,67.87
2022-09-02T03:57:12.674Z,67.74
2022-09-02T03:59:41.495Z,68.59
2022-09-02T04:02:11.601Z,68.02
2022-09-02T04:04:41.564Z,67.31
2022-09-02T04:07:08.751Z,67.62
2022-09-02T04:09:35.675Z,68.80
2022-09-02T04:12:05.072Z,68.25
2022-09-02T04:14:32.026Z,67.44
2022-09-02T04:18:14.122Z,68.31
2022-09-02T04:21:19.676Z,67.71
2022-09-02T04:23:47.265Z,68.49
2022-09-02T04:26:17.682Z,67.67
2022-09-02T04:28:44.767Z,67.38
2022-09-02T04:31:14.945Z,66.54
2022-09-02T04:33:41.912Z,66.53
2022-09-02T04:36:14.593Z,65.92
2022-09-02T04:38:42.124Z,65.81
2022-09-02T04:41:17.086Z,65.87
2022-09-02T04:43:44.277Z,65.18
2022-09-02T04:46:14.860Z,65.15
2022-09-02T04:48:43.591Z,65.19
2022-09-02T04:51:17.075Z,65.40
2022-09-02T04:53:46.232Z,64.64
2022-09-02T04:56:18.167Z,64.32
2022-09-02T04:58:45.707Z,64.76
2022-09-02T05:01:17.014Z,64.00
2022-09-02T05:03:45.728Z,63.62
2022-09-02T05:06:17.569Z,62.92
2022-09-02T05:08:47.976Z,62.13
2022-09-02T05:11:28.290Z,61.32
2022-09-02T05:13:58.154Z,61.77
2022-09-02T05:16:33.849Z,61.04
2022-09-02T05:19:00.981Z,61.40
2022-09-02T05:21:27.882Z,60.45
2022-09-02T05:23:55.690Z,60.33
2022-09-02T05:26:22.659Z,59.31
2022-09-02T05:28:50.302Z,58.33
2022-09-02T05:31:19.831Z,57.72
2022-09-02T05:33:47.210Z,56.26
2022-09-02T05:36:18.777Z,54.03
2022-09-02T05:38:46.171Z,52.41
2022-09-02T05:41:17.579Z,52.11
2022-09-02T05:43:44.935Z,50.26
2022-09-02T05:46:17.671Z,48.67
2022-09-02T05:49:05.348Z,46.72
2022-09-02T05:51:54.075Z,45.22
2022-09-02T05:54:25.322Z,43.90
2022-09-02T05:56:59.012Z,42.98
2022-09-02T05:59:28.436Z,41.12
2022-09-02T06:01:56.602Z,40.21
2022-09-02T06:04:24.136Z,39.06
2022-09-02T06:06:51.909Z,38.00
2022-09-02T06:09:22.512Z,38.46
2022-09-02T06:11:51.538Z,37.27
2022-09-02T06:14:23.003Z,36.76
2022-09-02T06:16:50.707Z,35.49
2022-09-02T06:19:20.180Z,34.78
2022-09-02T06:21:49.241Z,34.15
2022-09-02T06:24:16.527Z,31.98
2022-09-02T06:26:43.530Z,31.58
2022-09-02T06:29:11.479Z,30.28
2022-09-02T06:31:42.614Z,29.46
2022-09-02T06:34:12.404Z,28.82
2022-09-02T06:36:39.636Z,28.24
2022-09-02T06:39:06.535Z,27.60
2022-09-02T06:41:34.590Z,26.46
2022-09-02T06:44:07.056Z,25.52
2022-09-02T06:46:39.125Z,24.69
2022-09-02T06:49:08.473Z,24.75
2022-09-02T06:51:48.064Z,25.28
2022-09-02T06:54:18.472Z,24.49
2022-09-02T06:56:49.591Z,23.93
2022-09-02T06:59:19.235Z,22.73
2022-09-02T07:01:47.389Z,22.60
2022-09-02T07:04:34.080Z,22.09
2022-09-02T07:07:01.008Z,21.83
2022-09-02T07:09:31.318Z,21.37
2022-09-02T07:12:05.375Z,21.02
2022-09-02T07:14:41.806Z,20.87
2022-09-02T07:17:12.568Z,20.63
2022-09-02T07:19:39.612Z,20.21
2022-09-02T07:22:07.115Z,20.56
2022-09-02T07:24:34.020Z,19.83
2022-09-02T07:27:01.285Z,20.58
2022-09-02T07:29:28.208Z,20.58
2022-09-02T07:31:55.056Z,21.22
2022-09-02T07:34:21.985Z,21.71
2022-09-02T07:36:48.924Z,21.31
2022-09-02T07:39:17.979Z,21.75
2022-09-02T07:41:49.220Z,21.39
2022-09-02T07:44:18.291Z,22.70
2022-09-02T07:46:46.493Z,22.96
2022-09-02T07:49:16.430Z,23.45
2022-09-02T07:51:49.310Z,24.45
2022-09-02T07:54:21.275Z,24.56
2022-09-02T07:56:49.797Z,23.95
2022-09-02T07:59:18.070Z,23.11
2022-09-02T08:01:45.225Z,22.06
2022-09-02T08:04:13.910Z,21.37
2022-09-02T08:06:41.278Z,21.76
2022-09-02T08:09:12.394Z,21.59
2022-09-02T08:11:42.675Z,21.89
2022-09-02T08:14:14.316Z,20.92
2022-09-02T08:16:45.278Z,20.63
2022-09-02T08:19:14.153Z,21.36
2022-09-02T08:21:41.034Z,21.11
2022-09-02T08:24:07.941Z,20.13
2022-09-02T08:26:37.198Z,19.26
2022-09-02T08:29:08.922Z,21.03
2022-09-02T08:31:38.358Z,21.19
2022-09-02T08:34:06.618Z,20.33
2022-09-02T08:36:33.587Z,19.46
2022-09-02T08:39:04.163Z,18.35
2022-09-02T08:42:16.441Z,17.66
2022-09-02T08:44:43.404Z,17.42
2022-09-02T08:47:19.868Z,17.50
2022-09-02T08:49:51.548Z,17.38
2022-09-02T08:52:51.017Z,16.70
2022-09-02T08:55:28.942Z,15.76
2022-09-02T08:57:56.676Z,16.75
2022-09-02T09:00:24.059Z,15.34
2022-09-02T09:03:29.262Z,13.47
2022-09-02T09:06:28.385Z,13.61
2022-09-02T09:09:21.406Z,15.31
2022-09-02T09:12:18.508Z,12.91
2022-09-02T09:15:13.166Z,12.00
2022-09-02T09:17:49.274Z,11.87
2022-09-02T09:20:24.520Z,13.28
2022-09-02T09:22:56.761Z,12.20
2022-09-02T09:25:29.746Z,13.16
2022-09-02T09:27:58.617Z,12.62
2022-09-02T09:30:26.119Z,10.67
2022-09-02T09:32:57.359Z,10.76
2022-09-02T09:35:26.309Z,10.17
2022-09-02T09:37:55.400Z,10.45
2022-09-02T09:40:33.203Z,11.10
2022-09-02T09:43:13.202Z,11.63
2022-09-02T09:45:51.469Z,11.24
2022-09-02T09:48:31.042Z,11.28
2022-09-02T09:50:57.840Z,10.62
2022-09-02T09:53:34.106Z,12.13
2022-09-02T09:56:08.287Z,10.66
2022-09-02T09:58:41.182Z,11.24
2022-09-02T10:01:31.914Z,11.21
2022-09-02T10:04:42.389Z,11.51
2022-09-02T10:06:58.916Z,13.02
2022-09-02T10:09:34.619Z,15.28
2022-09-02T10:12:13.529Z,15.58
2022-09-02T10:14:49.047Z,15.30
2022-09-02T10:17:36.989Z,13.49
2022-09-02T10:20:33.606Z,13.85
2022-09-02T10:23:15.913Z,14.23
2022-09-02T10:26:07.499Z,14.79
2022-09-02T10:29:08.829Z,17.11
2022-09-02T10:32:23.307Z,18.08
2022-09-02T10:35:13.057Z,22.54
2022-09-02T10:38:12.874Z,23.41
2022-09-02T10:40:55.233Z,25.78
2022-09-02T10:43:48.055Z,26.41
2022-09-02T10:46:25.939Z,26.29
2022-09-02T10:49:07.198Z,25.69
2022-09-02T10:52:03.412Z,26.48
2022-09-02T10:54:41.177Z,26.33
2022-09-02T10:57:43.464Z,26.96
2022-09-02T11:00:18.502Z,27.99
2022-09-02T11:03:10.906Z,28.46
2022-09-02T11:05:52.765Z,28.22
2022-09-02T11:08:34.390Z,28.23
2022-09-02T11:11:24.604Z,29.26
2022-09-02T11:13:57.561Z,29.60
2022-09-02T11:16:34.200Z,29.48
2022-09-02T11:19:31.121Z,29.45
2022-09-02T11:22:37.287Z,28.93
2022-09-02T11:25:18.186Z,29.14
2022-09-02T11:28:36.532Z,30.15
2022-09-02T11:31:15.067Z,30.51
2022-09-02T11:34:09.669Z,30.35
2022-09-02T11:36:40.855Z,30.38
2022-09-02T11:39:25.634Z,30.04
2022-09-02T11:42:18.932Z,30.29
2022-09-02T11:45:13.601Z,30.35
2022-09-02T11:47:58.491Z,30.25
2022-09-02T11:50:55.209Z,29.66
2022-09-02T11:53:35.823Z,29.81
2022-09-02T11:56:11.958Z,29.73
2022-09-02T11:58:55.287Z,29.38
2022-09-02T12:01:29.876Z,29.84
2022-09-02T12:07:14.789Z,29.86
2022-09-02T12:09:47.997Z,29.68
2022-09-02T12:12:36.979Z,30.23
2022-09-02T12:15:07.458Z,30.72
2022-09-02T12:17:46.218Z,29.95
2022-09-02T12:20:40.048Z,30.46
2022-09-02T12:23:09.263Z,30.50
2022-09-02T12:25:48.663Z,30.85
2022-09-02T12:28:27.952Z,30.59
2022-09-02T12:31:23.953Z,30.44
2022-09-02T12:33:53.672Z,30.33
2022-09-02T12:36:46.187Z,30.57
2022-09-02T12:39:41.956Z,30.24
2022-09-02T12:42:11.821Z,29.68
2022-09-02T12:45:28.697Z,30.25
2022-09-02T12:48:12.174Z,30.15
2022-09-02T12:50:53.664Z,30.58
2022-09-02T12:53:46.972Z,30.15
2022-09-02T12:56:23.875Z,29.95
2022-09-02T12:59:01.647Z,30.03
2022-09-02T13:02:11.800Z,30.54
2022-09-02T13:04:48.872Z,30.13
2022-09-02T13:08:12.287Z,30.58
2022-09-02T13:11:35.251Z,29.80
2022-09-02T13:14:52.798Z,30.07
2022-09-02T13:17:46.535Z,30.45
2022-09-02T13:20:56.909Z,29.59
2022-09-02T13:24:00.977Z,29.54
2022-09-02T13:26:49.602Z,29.80
2022-09-02T13:29:59.943Z,29.94
2022-09-02T13:32:31.113Z,29.88
2022-09-02T13:35:06.760Z,29.49
2022-09-02T13:37:40.828Z,29.35
2022-09-02T13:40:29.146Z,29.81
2022-09-02T13:43:26.808Z,29.27
2022-09-02T13:46:00.127Z,29.46
2022-09-02T13:48:31.267Z,29.64
2022-09-02T13:51:14.456Z,29.69
2022-09-02T13:54:05.626Z,29.18
2022-09-02T13:56:32.864Z,29.38
2022-09-02T13:58:59.899Z,29.46
2022-09-02T14:01:29.893Z,29.44
2022-09-02T14:04:00.307Z,29.39
2022-09-02T14:06:33.456Z,29.42
2022-09-02T14:09:05.280Z,30.06
2022-09-02T14:11:42.954Z,30.13
2022-09-02T14:14:15.640Z,30.44
2022-09-02T14:16:42.630Z,29.03
2022-09-02T14:19:17.274Z,29.56
2022-09-02T14:21:54.015Z,29.61
2022-09-02T14:24:27.745Z,29.16
2022-09-02T14:27:00.128Z,29.14
2022-09-02T14:29:31.922Z,29.08
2022-09-02T14:32:13.355Z,29.24
2022-09-02T14:34:46.661Z,29.11
2022-09-02T14:37:22.980Z,29.58
2022-09-02T14:39:59.836Z,29.26
2022-09-02T14:42:29.438Z,28.77
2022-09-02T14:44:59.398Z,28.91
2022-09-02T14:47:28.120Z,28.58
2022-09-02T14:49:56.071Z,28.50
2022-09-02T14:52:30.534Z,29.28
2022-09-02T14:54:58.256Z,29.35
2022-09-02T14:57:35.400Z,29.27
2022-09-02T15:00:14.997Z,28.67
2022-09-02T15:02:46.336Z,28.93
2022-09-02T15:05:16.924Z,28.86
2022-09-02T15:07:45.767Z,28.52
2022-09-02T15:10:12.708Z,28.48
2022-09-02T15:12:49.253Z,28.91
2022-09-02T15:15:16.925Z,28.98
2022-09-02T15:17:44.076Z,28.42
2022-09-02T15:20:11.587Z,28.68
2022-09-02T15:22:38.726Z,28.55
2022-09-02T15:25:10.610Z,28.66
2022-09-02T15:27:37.927Z,29.14
2022-09-02T15:30:07.099Z,30.14
2022-09-02T15:32:33.971Z,28.88
2022-09-02T15:35:00.798Z,29.86
2022-09-02T15:37:27.930Z,29.20
2022-09-02T15:39:55.261Z,29.05
2022-09-02T15:42:22.302Z,28.81
2022-09-02T15:44:49.508Z,29.02
2022-09-02T15:47:16.426Z,28.63
2022-09-02T15:49:43.357Z,28.97
2022-09-02T15:52:11.188Z,29.01
2022-09-02T15:54:38.056Z,29.13
2022-09-02T15:57:05.243Z,29.17
2022-09-02T15:59:32.138Z,28.74
2022-09-02T16:01:59.376Z,28.28
2022-09-02T16:04:29.988Z,28.98
2022-09-02T16:06:57.069Z,28.62
2022-09-02T16:09:24.165Z,28.50
2022-09-02T16:11:54.074Z,29.20
2022-09-02T16:14:22.958Z,29.24
2022-09-02T16:16:53.144Z,29.28
2022-09-02T16:19:21.609Z,29.76
2022-09-02T16:21:52.626Z,29.48
2022-09-02T16:24:21.349Z,29.88
2022-09-02T16:26:48.912Z,29.52
2022-09-02T16:29:16.791Z,29.28
2022-09-02T16:32:02.387Z,29.80
2022-09-02T16:34:34.077Z,29.64
2022-09-02T16:37:00.946Z,29.62
2022-09-02T16:39:27.880Z,29.24
2022-09-02T16:41:55.312Z,29.07
2022-09-02T16:44:25.038Z,28.96
2022-09-02T16:46:53.214Z,29.05
2022-09-02T16:49:21.992Z,29.54
2022-09-02T16:51:58.289Z,29.59
2022-09-02T16:54:31.257Z,29.62
2022-09-02T16:57:00.778Z,29.30
2022-09-02T16:59:27.736Z,29.75
2022-09-02T17:01:54.704Z,29.72
2022-09-02T17:04:21.579Z,29.40
2022-09-02T17:06:48.654Z,29.29
2022-09-02T17:09:16.292Z,29.48
2022-09-02T17:11:45.148Z,30.10
2022-09-02T17:14:16.365Z,29.45
2022-09-02T17:16:48.911Z,30.06
2022-09-02T17:19:22.349Z,30.38
2022-09-02T17:21:52.916Z,29.75
2022-09-02T17:24:24.267Z,29.67
2022-09-02T17:26:56.041Z,30.00
2022-09-02T17:29:48.070Z,30.06
2022-09-02T17:32:13.764Z,30.11
2022-09-02T17:34:41.005Z,31.06
2022-09-02T17:37:08.026Z,30.73
2022-09-02T17:39:35.037Z,30.58
2022-09-02T17:42:05.099Z,30.53
2022-09-02T17:44:37.447Z,30.82
2022-09-02T17:47:10.850Z,30.87
2022-09-02T17:49:39.121Z,31.03
2022-09-02T17:52:07.876Z,31.09
2022-09-02T17:54:36.559Z,31.11
2022-09-02T17:57:18.783Z,31.39
2022-09-02T18:00:16.095Z,31.18
2022-09-02T18:03:22.906Z,31.00
2022-09-02T18:06:16.530Z,31.51
2022-09-02T18:08:52.624Z,31.34
2022-09-02T18:11:20.652Z,31.77
2022-09-02T18:14:18.023Z,31.85
2022-09-02T18:17:18.549Z,31.89
2022-09-02T18:20:28.873Z,32.19
2022-09-02T18:23:13.805Z,32.83
2022-09-02T18:26:30.301Z,32.84
2022-09-02T18:29:40.924Z,32.58
2022-09-02T18:32:33.158Z,32.80
2022-09-02T18:35:28.126Z,33.10
2022-09-02T18:38:28.140Z,33.27
2022-09-02T18:41:24.171Z,33.80
2022-09-02T18:44:10.131Z,34.45
2022-09-02T18:46:58.056Z,33.59
2022-09-02T18:49:28.130Z,33.03
2022-09-02T18:52:00.593Z,33.73
2022-09-02T18:54:59.494Z,33.89
2022-09-02T18:57:33.545Z,33.58
2022-09-02T19:00:19.450Z,33.59
2022-09-02T19:03:01.458Z,33.71
2022-09-02T19:05:32.766Z,33.78
2022-09-02T19:08:29.764Z,34.37
2022-09-02T19:11:03.511Z,34.46
2022-09-02T19:13:47.008Z,34.49
2022-09-02T19:16:21.081Z,35.11
2022-09-02T19:18:49.191Z,34.83
2022-09-02T19:21:28.633Z,34.79
2022-09-02T19:23:55.764Z,35.07
2022-09-02T19:26:24.247Z,35.40
2022-09-02T19:28:52.343Z,35.51
2022-09-02T19:31:23.899Z,35.57
2022-09-02T19:33:54.114Z,35.46
2022-09-02T19:36:26.435Z,35.65
2022-09-02T19:39:03.493Z,35.91
2022-09-02T19:41:30.464Z,36.28
2022-09-02T19:43:58.209Z,35.76
2022-09-02T19:47:06.930Z,36.10
2022-09-02T19:49:12.592Z,35.85
2022-09-02T19:51:43.308Z,36.12
2022-09-02T19:54:14.478Z,36.08
2022-09-02T19:56:42.896Z,36.30
2022-09-02T19:59:10.960Z,36.53
2022-09-02T20:01:38.730Z,36.80
2022-09-02T20:04:06.867Z,36.91
2022-09-02T20:06:34.354Z,36.83
2022-09-02T20:09:04.036Z,36.90
2022-09-02T20:11:31.169Z,37.33
2022-09-02T20:13:58.489Z,37.11
2022-09-02T20:16:29.140Z,37.02
2022-09-02T20:18:57.396Z,37.09
2022-09-02T20:21:27.692Z,37.48
2022-09-02T20:23:59.174Z,37.66
2022-09-02T20:26:50.939Z,37.33
2022-09-02T20:29:46.682Z,37.22
2022-09-02T20:32:46.179Z,37.56
2022-09-02T20:35:34.627Z,37.74
2022-09-02T20:38:35.721Z,37.86
2022-09-02T20:41:16.974Z,37.93
2022-09-02T20:44:23.614Z,38.10
2022-09-02T20:47:24.502Z,38.29
2022-09-02T20:50:29.752Z,38.95
2022-09-02T20:53:11.577Z,38.63
2022-09-02T20:55:47.578Z,38.66
2022-09-02T20:58:42.193Z,38.61
2022-09-02T21:01:22.535Z,39.00
2022-09-02T21:04:28.997Z,38.96
2022-09-02T21:07:21.481Z,38.90
2022-09-02T21:10:10.470Z,38.80
2022-09-02T21:12:53.370Z,39.08
2022-09-02T21:15:33.547Z,39.09
2022-09-02T21:18:16.928Z,39.35
2022-09-02T21:20:54.704Z,38.87
2022-09-02T21:23:38.487Z,38.89
2022-09-02T21:26:23.330Z,39.00
2022-09-02T21:29:04.563Z,39.36
2022-09-02T21:31:53.455Z,39.47
2022-09-02T21:34:38.957Z,39.40
2022-09-02T21:37:09.484Z,39.72
2022-09-02T21:39:42.988Z,39.70
2022-09-02T21:42:32.394Z,39.62
2022-09-02T21:45:34.502Z,39.91
2022-09-02T21:48:15.045Z,39.75
2022-09-02T21:50:58.784Z,39.78
2022-09-02T21:54:02.309Z,39.85
2022-09-02T21:56:49.612Z,40.08
2022-09-02T21:59:44.929Z,40.20
2022-09-02T22:02:27.818Z,40.24
2022-09-02T22:05:23.033Z,40.21
2022-09-02T22:08:02.924Z,40.08
2022-09-02T22:11:00.346Z,40.17
2022-09-02T22:13:31.727Z,40.30
2022-09-02T22:16:21.177Z,40.44
2022-09-02T22:19:00.295Z,40.09
2022-09-02T22:21:48.550Z,40.18
2022-09-02T22:24:28.488Z,40.67
2022-09-02T22:27:06.386Z,40.58
2022-09-02T22:30:14.526Z,40.83
2022-09-02T22:33:03.721Z,40.78
2022-09-02T22:35:45.129Z,41.38
2022-09-02T22:38:26.400Z,41.30
2022-09-02T22:41:20.120Z,41.17
2022-09-02T22:43:56.406Z,41.77
2022-09-02T22:47:20.047Z,41.66
2022-09-02T22:50:13.136Z,42.12
2022-09-02T22:52:46.378Z,42.38
2022-09-02T22:55:42.591Z,41.75
2022-09-02T22:58:38.730Z,42.38
2022-09-02T23:01:51.652Z,42.89
2022-09-02T23:04:43.085Z,43.02
2022-09-02T23:07:13.290Z,43.33
2022-09-02T23:09:40.352Z,43.89
2022-09-02T23:12:13.041Z,43.54
2022-09-02T23:15:10.214Z,43.54
2022-09-02T23:17:36.951Z,43.68
2022-09-02T23:20:30.608Z,43.83
2022-09-02T23:23:38.583Z,44.16
2022-09-02T23:26:45.020Z,44.08
2022-09-02T23:29:24.014Z,44.00
2022-09-02T23:32:24.497Z,44.33
2022-09-02T23:35:33.220Z,43.75
2022-09-02T23:38:19.805Z,43.71
2022-09-02T23:41:00.546Z,44.03
2022-09-02T23:43:27.594Z,43.83
2022-09-02T23:45:55.944Z,44.03
2022-09-02T23:49:05.396Z,44.01
2022-09-02T23:52:00.924Z,44.35
2022-09-02T23:54:36.191Z,44.50
2022-09-02T23:57:50.817Z,44.54
